createdAt,value
2023-05-07T00:03:50.175Z,9.61
2023-05-07T00:08:51.114Z,9.52
2023-05-07T00:13:51.889Z,9.46
2023-05-07T00:18:54.273Z,9.46
2023-05-07T00:23:55.003Z,9.63
2023-05-07T00:28:55.726Z,9.63
2023-05-07T00:33:57.751Z,9.73
2023-05-07T00:39:00.981Z,9.85
2023-05-07T00:44:02.614Z,9.62
2023-05-07T00:49:04.726Z,9.75
2023-05-07T00:54:05.997Z,9.76
2023-05-07T00:59:07.774Z,9.69
2023-05-07T01:04:09.847Z,9.76
2023-05-07T01:09:10.999Z,9.83
2023-05-07T01:14:12.253Z,9.88
2023-05-07T01:19:17.121Z,9.93
2023-05-07T01:24:20.169Z,9.90
2023-05-07T01:29:20.934Z,9.93
2023-05-07T01:34:24.407Z,9.94
2023-05-07T01:39:26.958Z,9.95
2023-05-07T01:44:28.925Z,9.93
2023-05-07T01:49:29.929Z,9.91
2023-05-07T01:54:31.937Z,9.97
2023-05-07T01:59:33.576Z,9.93
2023-05-07T02:04:34.281Z,9.82
2023-05-07T02:09:36.799Z,9.88
2023-05-07T02:14:37.941Z,9.86
2023-05-07T02:19:38.589Z,9.93
2023-05-07T02:24:40.695Z,9.90
2023-05-07T02:29:41.456Z,9.83
2023-05-07T02:34:42.249Z,9.78
2023-05-07T02:39:44.276Z,9.87
2023-05-07T02:44:44.939Z,9.87
2023-05-07T02:49:46.090Z,9.75
2023-05-07T02:54:49.080Z,9.74
2023-05-07T02:59:49.793Z,9.71
2023-05-07T03:04:52.036Z,9.71
2023-05-07T03:09:54.666Z,9.38
2023-05-07T03:14:55.376Z,9.49
2023-05-07T03:19:56.151Z,9.49
2023-05-07T03:24:58.348Z,9.55
2023-05-07T03:29:58.985Z,9.45
2023-05-07T03:34:59.664Z,9.32
2023-05-07T03:40:02.027Z,9.36
2023-05-07T03:45:04.833Z,9.27
2023-05-07T03:50:06.292Z,9.42
2023-05-07T03:55:09.244Z,9.40
2023-05-07T04:00:13.512Z,9.35
2023-05-07T04:05:23.158Z,9.42
2023-05-07T04:10:29.184Z,9.42
2023-05-07T04:15:31.133Z,9.47
2023-05-07T04:20:31.829Z,9.50
2023-05-07T04:25:38.650Z,9.55
2023-05-07T04:30:47.601Z,9.76
2023-05-07T04:35:48.942Z,9.98
2023-05-07T04:40:51.454Z,10.04
2023-05-07T04:45:55.760Z,9.98
2023-05-07T04:50:59.177Z,9.87
2023-05-07T04:56:01.485Z,9.74
2023-05-07T05:01:09.001Z,9.84
2023-05-07T05:06:09.792Z,9.78
2023-05-07T05:11:12.486Z,9.73
2023-05-07T05:16:13.643Z,9.90
2023-05-07T05:21:15.202Z,9.75
2023-05-07T05:26:19.616Z,9.88
2023-05-07T05:31:20.409Z,10.02
2023-05-07T05:36:23.501Z,10.01
2023-05-07T05:41:28.613Z,9.85
2023-05-07T05:46:29.882Z,9.94
2023-05-07T05:51:32.435Z,9.87
2023-05-07T05:56:34.913Z,9.95
2023-05-07T06:01:36.599Z,10.11
2023-05-07T06:06:41.330Z,10.26
2023-05-07T06:11:43.962Z,10.46
2023-05-07T06:16:46.338Z,10.64
2023-05-07T06:21:47.048Z,10.59
2023-05-07T06:26:49.076Z,10.89
2023-05-07T06:31:49.860Z,10.78
2023-05-07T06:36:50.887Z,10.71
2023-05-07T06:42:06.916Z,10.43
2023-05-07T06:47:08.114Z,10.48
2023-05-07T06:52:10.398Z,10.55
2023-05-07T06:57:12.664Z,10.51
2023-05-07T07:02:13.421Z,10.50
2023-05-07T07:07:20.816Z,10.35
2023-05-07T07:12:26.978Z,10.08
2023-05-07T07:17:28.301Z,10.27
2023-05-07T07:22:30.054Z,10.51
2023-05-07T07:27:32.289Z,10.80
2023-05-07T07:32:34.487Z,11.08
2023-05-07T07:37:35.373Z,11.00
2023-05-07T07:42:37.353Z,10.99
2023-05-07T07:47:38.398Z,11.38
2023-05-07T07:52:39.327Z,11.39
2023-05-07T07:57:43.076Z,11.07
2023-05-07T08:02:44.311Z,11.04
2023-05-07T08:07:53.022Z,10.98
2023-05-07T08:12:58.672Z,11.30
2023-05-07T08:18:01.309Z,11.56
2023-05-07T08:23:02.750Z,11.49
2023-05-07T08:28:05.815Z,11.60
2023-05-07T08:33:07.420Z,11.64
2023-05-07T08:38:08.207Z,11.27
2023-05-07T08:43:14.761Z,11.59
2023-05-07T08:48:18.136Z,11.81
2023-05-07T08:53:25.555Z,11.55
2023-05-07T08:58:27.984Z,11.32
2023-05-07T09:03:28.717Z,11.57
2023-05-07T09:08:31.207Z,11.46
2023-05-07T09:13:37.135Z,12.08
2023-05-07T09:18:42.906Z,12.21
2023-05-07T09:23:46.150Z,11.91
2023-05-07T09:28:50.059Z,11.73
2023-05-07T09:33:51.204Z,12.15
2023-05-07T09:38:53.100Z,12.21
2023-05-07T09:43:57.538Z,12.18
2023-05-07T09:49:04.592Z,12.38
2023-05-07T09:54:09.056Z,12.57
2023-05-07T09:59:16.544Z,12.50
2023-05-07T10:04:19.568Z,12.03
2023-05-07T10:09:20.816Z,12.14
2023-05-07T10:14:23.963Z,12.71
2023-05-07T10:19:26.273Z,12.66
2023-05-07T10:24:34.960Z,13.00
2023-05-07T10:29:51.563Z,13.34
2023-05-07T10:34:57.256Z,13.26
2023-05-07T10:39:58.823Z,12.79
2023-05-07T10:45:15.653Z,12.77
2023-05-07T10:50:24.168Z,12.99
2023-05-07T10:55:28.701Z,13.84
2023-05-07T11:01:01.227Z,14.13
2023-05-07T11:06:12.630Z,14.39
2023-05-07T11:11:48.623Z,14.41
2023-05-07T11:17:16.516Z,14.37
2023-05-07T11:22:40.904Z,14.03
2023-05-07T11:27:50.587Z,14.27
2023-05-07T11:32:52.879Z,13.85
2023-05-07T11:38:01.337Z,14.07
2023-05-07T11:43:12.529Z,13.82
2023-05-07T11:48:15.029Z,14.08
2023-05-07T11:53:15.740Z,14.27
2023-05-07T11:58:24.011Z,14.23
2023-05-07T12:03:26.633Z,14.48
2023-05-07T12:08:28.499Z,14.27
2023-05-07T12:13:29.166Z,14.83
2023-05-07T12:18:32.251Z,15.37
2023-05-07T12:23:34.938Z,15.52
2023-05-07T12:28:39.689Z,15.10
2023-05-07T12:33:41.999Z,14.73
2023-05-07T12:38:43.177Z,14.46
2023-05-07T12:43:46.585Z,14.65
2023-05-07T12:48:51.198Z,15.44
2023-05-07T12:53:52.057Z,15.50
2023-05-07T12:58:52.671Z,16.11
2023-05-07T13:03:54.699Z,16.05
2023-05-07T13:08:56.230Z,15.55
2023-05-07T13:13:56.903Z,15.57
2023-05-07T13:18:59.294Z,15.81
2023-05-07T13:23:59.995Z,15.65
2023-05-07T13:29:00.725Z,15.99
2023-05-07T13:34:02.775Z,16.00
2023-05-07T13:39:03.525Z,15.75
2023-05-07T13:44:04.229Z,16.03
2023-05-07T13:49:06.263Z,15.53
2023-05-07T13:54:06.955Z,15.85
2023-05-07T13:59:07.680Z,15.61
2023-05-07T14:04:09.800Z,15.76
2023-05-07T14:09:13.172Z,15.41
2023-05-07T14:14:13.938Z,15.30
2023-05-07T14:19:16.046Z,15.34
2023-05-07T14:24:27.145Z,15.08
2023-05-07T14:29:36.560Z,14.99
2023-05-07T14:34:38.862Z,15.48
2023-05-07T14:39:39.604Z,15.77
2023-05-07T14:44:41.509Z,15.39
2023-05-07T14:49:43.989Z,15.13
2023-05-07T14:54:44.767Z,15.28
2023-05-07T14:59:45.531Z,15.20
2023-05-07T15:04:47.713Z,14.55
2023-05-07T15:09:48.389Z,14.81
2023-05-07T15:14:49.072Z,14.55
2023-05-07T15:19:52.021Z,14.47
2023-05-07T15:24:56.093Z,14.19
2023-05-07T15:29:56.811Z,14.30
2023-05-07T15:34:58.974Z,14.00
2023-05-07T15:39:59.666Z,14.14
2023-05-07T15:45:01.415Z,14.02
2023-05-07T15:50:03.573Z,13.77
2023-05-07T15:55:04.593Z,13.84
2023-05-07T16:00:09.742Z,13.73
2023-05-07T16:05:14.927Z,13.77
2023-05-07T16:10:15.756Z,13.72
2023-05-07T16:15:16.650Z,13.81
2023-05-07T16:20:21.835Z,13.95
2023-05-07T16:25:22.832Z,14.10
2023-05-07T16:30:23.509Z,13.64
2023-05-07T16:35:25.570Z,13.73
2023-05-07T16:40:26.629Z,13.42
2023-05-07T16:45:30.394Z,13.38
2023-05-07T16:50:32.649Z,13.07
2023-05-07T16:55:38.715Z,13.45
2023-05-07T17:05:46.164Z,14.47
2023-05-07T17:10:47.366Z,14.46
2023-05-07T17:15:48.591Z,15.61
2023-05-07T17:20:50.694Z,15.12
2023-05-07T17:25:51.483Z,15.53
2023-05-07T17:30:52.199Z,15.09
2023-05-07T17:35:55.853Z,14.77
2023-05-07T17:40:56.561Z,14.15
2023-05-07T17:45:57.238Z,13.80
2023-05-07T17:51:03.799Z,12.47
2023-05-07T17:56:07.190Z,12.13
2023-05-07T18:01:07.965Z,11.65
2023-05-07T18:06:10.310Z,11.58
2023-05-07T18:11:11.429Z,11.21
2023-05-07T18:16:12.197Z,11.31
2023-05-07T18:21:18.807Z,11.08
2023-05-07T18:26:19.554Z,10.72
2023-05-07T18:31:20.704Z,10.48
2023-05-07T18:36:24.914Z,10.14
2023-05-07T18:41:25.735Z,10.12
2023-05-07T18:46:26.581Z,10.06
2023-05-07T18:51:28.621Z,9.78
2023-05-07T18:56:29.375Z,9.72
2023-05-07T19:01:30.395Z,9.66
2023-05-07T19:06:33.673Z,9.57
2023-05-07T19:11:34.548Z,9.56
2023-05-07T19:16:35.381Z,9.42
2023-05-07T19:21:37.670Z,9.37
2023-05-07T19:26:39.696Z,9.32
2023-05-07T19:31:40.376Z,9.20
2023-05-07T19:36:42.491Z,9.21
2023-05-07T19:41:43.215Z,9.09
2023-05-07T19:46:45.789Z,9.10
2023-05-07T19:51:47.923Z,8.96
2023-05-07T19:56:48.660Z,8.93
2023-05-07T20:01:49.510Z,8.90
2023-05-07T20:06:51.553Z,8.81
2023-05-07T20:11:52.235Z,8.81
2023-05-07T20:16:52.919Z,8.74
2023-05-07T20:21:54.940Z,8.60
2023-05-07T20:26:55.652Z,8.67
2023-05-07T20:31:56.432Z,8.64
2023-05-07T20:36:58.445Z,8.59
2023-05-07T20:42:00.162Z,8.63
2023-05-07T20:47:00.960Z,8.68
2023-05-07T20:52:03.041Z,8.80
2023-05-07T20:57:03.779Z,8.92
2023-05-07T21:02:04.614Z,8.89
2023-05-07T21:07:07.063Z,8.83
2023-05-07T21:12:08.106Z,8.89
2023-05-07T21:17:09.021Z,8.76
2023-05-07T21:22:11.156Z,8.59
2023-05-07T21:27:11.864Z,8.33
2023-05-07T21:32:13.600Z,8.30
2023-05-07T21:37:15.902Z,8.20
2023-05-07T21:42:16.572Z,8.22
2023-05-07T21:47:17.340Z,8.04
2023-05-07T21:52:19.351Z,8.04
2023-05-07T21:57:20.100Z,7.99
2023-05-07T22:02:21.117Z,7.87
2023-05-07T22:07:23.120Z,7.81
2023-05-07T22:12:23.780Z,7.75
2023-05-07T22:17:24.697Z,7.78
2023-05-07T22:22:26.679Z,7.72
2023-05-07T22:27:27.428Z,7.61
2023-05-07T22:32:28.088Z,7.70
2023-05-07T22:37:30.162Z,7.69
2023-05-07T22:42:30.801Z,7.63
2023-05-07T22:47:31.856Z,7.61
2023-05-07T22:52:34.099Z,7.49
2023-05-07T22:57:34.779Z,7.49
2023-05-07T23:02:35.533Z,7.40
2023-05-07T23:07:37.616Z,7.42
2023-05-07T23:12:38.312Z,7.44
2023-05-07T23:17:39.039Z,7.55
2023-05-07T23:22:41.081Z,7.60
2023-05-07T23:27:41.761Z,7.80
2023-05-07T23:32:42.685Z,7.86
2023-05-07T23:37:44.690Z,7.85
2023-05-07T23:42:45.336Z,7.77
2023-05-07T23:47:46.282Z,7.61
2023-05-07T23:52:48.335Z,7.46
2023-05-07T23:57:48.951Z,7.33
